createdAt,value
2022-09-11T00:00:57.038Z,99733.13
2022-09-11T00:01:52.048Z,99722.59
2022-09-11T00:02:46.053Z,99726.50
2022-09-11T00:03:40.193Z,99725.47
2022-09-11T00:04:34.029Z,99728.69
2022-09-11T00:05:28.061Z,99734.75
2022-09-11T00:06:30.101Z,99728.28
2022-09-11T00:07:04.148Z,99716.88
2022-09-11T00:07:54.118Z,99717.38
2022-09-11T00:08:28.061Z,99727.75
2022-09-11T00:09:16.019Z,99720.44
2022-09-11T00:09:50.091Z,99719.72
2022-09-11T00:10:38.032Z,99722.09
2022-09-11T00:11:16.727Z,99726.16
2022-09-11T00:11:57.069Z,99720.63
2022-09-11T00:12:37.052Z,99718.63
2022-09-11T00:13:28.013Z,99708.66
2022-09-11T00:14:08.084Z,99721.84
2022-09-11T00:14:47.986Z,99701.63
2022-09-11T00:15:28.474Z,99718.94
2022-09-11T00:16:12.078Z,99717.97
2022-09-11T00:16:53.072Z,99726.81
2022-09-11T00:17:33.091Z,99721.47
2022-09-11T00:18:14.974Z,99717.91
2022-09-11T00:18:56.978Z,99723.00
2022-09-11T00:19:37.093Z,99720.28
2022-09-11T00:20:17.986Z,99690.41
2022-09-11T00:21:01.233Z,99717.91
2022-09-11T00:21:42.106Z,99723.66
2022-09-11T00:22:22.024Z,99718.28
2022-09-11T00:23:03.037Z,99716.22
2022-09-11T00:23:43.228Z,99719.22
2022-09-11T00:24:22.988Z,99719.03
2022-09-11T00:25:03.053Z,99713.00
2022-09-11T00:25:46.976Z,99717.59
2022-09-11T00:26:28.100Z,99719.28
2022-09-11T00:27:07.970Z,99722.94
2022-09-11T00:27:50.129Z,99717.88
2022-09-11T00:28:32.005Z,99718.13
2022-09-11T00:29:12.138Z,99715.06
2022-09-11T00:29:52.018Z,99718.34
2022-09-11T00:30:32.077Z,99713.38
2022-09-11T00:31:21.051Z,99694.19
2022-09-11T00:32:01.137Z,99718.94
2022-09-11T00:32:41.002Z,99710.25
2022-09-11T00:33:23.092Z,99709.97
2022-09-11T00:34:05.015Z,99708.38
2022-09-11T00:34:46.858Z,99710.44
2022-09-11T00:35:28.055Z,99706.34
2022-09-11T00:36:12.168Z,99718.59
2022-09-11T00:36:55.008Z,99715.84
2022-09-11T00:37:35.053Z,99714.06
2022-09-11T00:38:17.466Z,99719.88
2022-09-11T00:38:58.120Z,99718.84
2022-09-11T00:39:39.067Z,99710.00
2022-09-11T00:40:20.224Z,99708.53
2022-09-11T00:41:00.995Z,99716.13
2022-09-11T00:41:49.502Z,99713.69
2022-09-11T00:42:29.013Z,99712.75
2022-09-11T00:43:09.076Z,99717.72
2022-09-11T00:44:15.169Z,99700.88
2022-09-11T00:44:56.019Z,99705.66
2022-09-11T00:45:35.614Z,99711.91
2022-09-11T00:46:22.979Z,99712.75
2022-09-11T00:47:12.030Z,99708.88
2022-09-11T00:48:04.974Z,99697.78
2022-09-11T00:48:41.045Z,99712.38
2022-09-11T00:49:42.989Z,99706.44
2022-09-11T00:50:29.031Z,99703.47
2022-09-11T00:51:24.005Z,99699.22
2022-09-11T00:52:37.001Z,99704.38
2022-09-11T00:53:33.008Z,99700.59
2022-09-11T00:54:32.014Z,99709.94
2022-09-11T00:55:30.119Z,99704.78
2022-09-11T00:56:23.975Z,99698.66
2022-09-11T00:57:19.968Z,99694.25
2022-09-11T00:58:28.066Z,99704.78
2022-09-11T00:59:22.992Z,99704.97
2022-09-11T01:00:19.982Z,99706.19
2022-09-11T01:01:03.038Z,99714.06
2022-09-11T01:01:44.106Z,99705.34
2022-09-11T01:02:27.601Z,99712.50
2022-09-11T01:03:08.538Z,99704.22
2022-09-11T01:03:50.990Z,99703.47
2022-09-11T01:04:31.240Z,99710.81
2022-09-11T01:05:12.962Z,99704.97
2022-09-11T01:05:54.644Z,99716.41
2022-09-11T01:06:36.091Z,99705.94
2022-09-11T01:07:21.028Z,99709.94
2022-09-11T01:08:03.026Z,99693.00
2022-09-11T01:08:43.605Z,99693.28
2022-09-11T01:09:23.969Z,99711.25
2022-09-11T01:10:04.051Z,99696.78
2022-09-11T01:11:23.956Z,99707.78
2022-09-11T01:12:44.999Z,99699.31
2022-09-11T01:13:32.991Z,99695.44
2022-09-11T01:15:05.970Z,99695.03
2022-09-11T01:15:51.150Z,99696.75
2022-09-11T01:16:55.938Z,99700.88
2022-09-11T01:18:16.064Z,99710.66
2022-09-11T01:19:32.008Z,99700.16
2022-09-11T01:21:06.067Z,99691.56
2022-09-11T01:22:08.013Z,99702.75
2022-09-11T01:23:28.017Z,99704.78
2022-09-11T01:24:52.012Z,99705.13
2022-09-11T01:26:06.952Z,99715.19
2022-09-11T01:27:12.950Z,99712.88
2022-09-11T01:28:09.979Z,99700.16
2022-09-11T01:29:09.000Z,99701.84
2022-09-11T01:29:59.275Z,99694.09
2022-09-11T01:30:47.964Z,99703.94
2022-09-11T01:31:33.113Z,99685.28
2022-09-11T01:32:49.948Z,99705.34
2022-09-11T01:34:02.438Z,99696.88
2022-09-11T01:34:55.143Z,99696.50
2022-09-11T01:35:56.455Z,99700.88
2022-09-11T01:36:47.933Z,99692.00
2022-09-11T01:37:56.011Z,99700.03
2022-09-11T01:38:43.969Z,99699.31
2022-09-11T01:39:28.008Z,99687.44
2022-09-11T01:40:16.985Z,99691.97
2022-09-11T01:41:10.077Z,99687.19
2022-09-11T01:42:13.943Z,99690.75
2022-09-11T01:42:57.029Z,99681.22
2022-09-11T01:43:41.089Z,99695.34
2022-09-11T01:44:45.051Z,99696.34
2022-09-11T01:45:26.942Z,99701.94
2022-09-11T01:46:11.042Z,99681.03
2022-09-11T01:46:56.968Z,99689.03
2022-09-11T01:47:40.231Z,99669.22
2022-09-11T01:48:30.941Z,99694.31
2022-09-11T01:49:25.827Z,99693.00
2022-09-11T01:50:15.953Z,99696.91
2022-09-11T01:50:56.958Z,99698.72
2022-09-11T01:51:37.163Z,99701.75
2022-09-11T01:52:35.079Z,99695.34
2022-09-11T01:53:12.304Z,99706.25
2022-09-11T01:54:01.013Z,99707.56
2022-09-11T01:55:01.319Z,99701.09
2022-09-11T01:55:55.940Z,99703.91
2022-09-11T01:56:45.941Z,99697.75
2022-09-11T01:57:57.916Z,99691.59
2022-09-11T01:58:52.977Z,99688.41
2022-09-11T01:59:46.613Z,99682.84
2022-09-11T02:00:35.043Z,99668.91
2022-09-11T02:01:24.953Z,99695.53
2022-09-11T02:02:12.040Z,99695.03
2022-09-11T02:03:01.887Z,99693.34
2022-09-11T02:03:54.044Z,99693.34
2022-09-11T02:04:39.886Z,99694.00
2022-09-11T02:05:32.006Z,99679.00
2022-09-11T02:06:19.987Z,99689.59
2022-09-11T02:07:35.945Z,99682.94
2022-09-11T02:08:24.004Z,99688.22
2022-09-11T02:09:01.807Z,99675.50
2022-09-11T02:09:53.916Z,99693.00
2022-09-11T02:10:34.293Z,99682.09
2022-09-11T02:11:11.944Z,99689.59
2022-09-11T02:11:54.890Z,99686.56
2022-09-11T02:12:33.941Z,99677.75
2022-09-11T02:13:29.936Z,99691.59
2022-09-11T02:14:21.301Z,99677.75
2022-09-11T02:15:02.921Z,99677.75
2022-09-11T02:15:55.517Z,99682.66
2022-09-11T02:17:00.939Z,99684.88
2022-09-11T02:17:57.978Z,99689.28
2022-09-11T02:19:08.035Z,99682.09
2022-09-11T02:19:49.111Z,99668.78
2022-09-11T02:20:29.017Z,99687.78
2022-09-11T02:21:08.956Z,99685.66
2022-09-11T02:21:49.901Z,99691.84
2022-09-11T02:22:31.013Z,99694.06
2022-09-11T02:23:13.890Z,99697.63
2022-09-11T02:23:55.395Z,99689.78
2022-09-11T02:24:35.921Z,99692.88
2022-09-11T02:25:16.975Z,99689.13
2022-09-11T02:25:57.860Z,99687.88
2022-09-11T02:26:41.029Z,99683.28
2022-09-11T02:27:30.914Z,99684.13
2022-09-11T02:28:10.956Z,99677.91
2022-09-11T02:28:50.886Z,99690.81
2022-09-11T02:29:30.994Z,99686.06
2022-09-11T02:30:11.913Z,99681.97
2022-09-11T02:30:52.919Z,99686.00
2022-09-11T02:31:33.961Z,99666.69
2022-09-11T02:32:13.946Z,99678.31
2022-09-11T02:32:53.898Z,99684.72
2022-09-11T02:33:36.084Z,99686.06
2022-09-11T02:34:19.962Z,99666.19
2022-09-11T02:35:02.017Z,99677.72
2022-09-11T02:35:52.903Z,99675.19
2022-09-11T02:36:39.109Z,99660.03
2022-09-11T02:37:47.926Z,99678.22
2022-09-11T02:38:36.029Z,99666.31
2022-09-11T02:39:39.935Z,99675.53
2022-09-11T02:40:46.983Z,99680.25
2022-09-11T02:41:33.905Z,99672.16
2022-09-11T02:43:02.955Z,99670.72
2022-09-11T02:43:51.886Z,99675.31
2022-09-11T02:44:58.965Z,99666.47
2022-09-11T02:46:32.921Z,99677.00
2022-09-11T02:47:41.916Z,99677.06
2022-09-11T02:48:36.156Z,99683.28
2022-09-11T02:49:39.800Z,99669.75
2022-09-11T02:50:44.885Z,99684.94
2022-09-11T02:51:41.919Z,99676.66
2022-09-11T02:52:29.948Z,99687.66
2022-09-11T02:53:27.858Z,99683.38
2022-09-11T02:55:08.696Z,99688.69
2022-09-11T02:56:42.913Z,99676.78
2022-09-11T02:57:39.780Z,99675.19
2022-09-11T02:58:38.869Z,99686.22
2022-09-11T02:59:28.972Z,99681.72
2022-09-11T03:00:20.895Z,99674.94
2022-09-11T03:00:59.953Z,99663.75
2022-09-11T03:02:02.021Z,99676.16
2022-09-11T03:02:40.032Z,99672.91
2022-09-11T03:03:27.886Z,99676.28
2022-09-11T03:04:01.625Z,99672.59
2022-09-11T03:04:49.852Z,99675.81
2022-09-11T03:05:23.585Z,99672.53
2022-09-11T03:06:10.856Z,99661.69
2022-09-11T03:06:45.661Z,99673.25
2022-09-11T03:07:25.896Z,99671.22
2022-09-11T03:07:59.994Z,99666.22
2022-09-11T03:08:34.436Z,99669.25
2022-09-11T03:09:16.837Z,99669.31
2022-09-11T03:09:51.028Z,99666.59
2022-09-11T03:10:27.557Z,99664.28
2022-09-11T03:11:07.892Z,99655.44
2022-09-11T03:11:42.345Z,99658.66
2022-09-11T03:12:16.551Z,99657.16
2022-09-11T03:12:56.891Z,99668.63
2022-09-11T03:13:31.147Z,99677.97
2022-09-11T03:14:04.537Z,99682.22
2022-09-11T03:14:45.837Z,99663.75
2022-09-11T03:15:20.677Z,99677.72
2022-09-11T03:15:54.610Z,99671.56
2022-09-11T03:16:34.890Z,99673.44
2022-09-11T03:17:08.969Z,99663.91
2022-09-11T03:17:42.839Z,99672.91
2022-09-11T03:18:23.884Z,99676.41
2022-09-11T03:18:57.967Z,99674.72
2022-09-11T03:19:31.729Z,99665.88
2022-09-11T03:20:12.880Z,99669.63
2022-09-11T03:20:47.313Z,99676.69
2022-09-11T03:21:21.559Z,99668.22
2022-09-11T03:22:01.831Z,99668.59
2022-09-11T03:22:35.936Z,99676.41
2022-09-11T03:23:10.989Z,99673.84
2022-09-11T03:23:51.938Z,99663.63
2022-09-11T03:24:26.773Z,99670.47
2022-09-11T03:25:00.926Z,99670.94
2022-09-11T03:25:40.859Z,99669.63
2022-09-11T03:26:17.232Z,99672.72
2022-09-11T03:26:51.594Z,99672.34
2022-09-11T03:27:32.829Z,99674.25
2022-09-11T03:28:13.917Z,99673.38
2022-09-11T03:28:53.852Z,99676.16
2022-09-11T03:29:33.925Z,99674.09
2022-09-11T03:30:14.833Z,99669.38
2022-09-11T03:30:58.178Z,99681.28
2022-09-11T03:31:39.544Z,99678.88
2022-09-11T03:32:21.141Z,99677.06
2022-09-11T03:33:00.827Z,99674.47
2022-09-11T03:33:41.005Z,99676.53
2022-09-11T03:34:20.877Z,99674.56
2022-09-11T03:35:01.670Z,99671.78
2022-09-11T03:35:42.829Z,99673.50
2022-09-11T03:36:22.891Z,99672.81
2022-09-11T03:37:02.805Z,99681.34
2022-09-11T03:37:43.002Z,99675.06
2022-09-11T03:38:22.865Z,99681.34
2022-09-11T03:39:02.925Z,99676.25
2022-09-11T03:39:42.939Z,99675.78
2022-09-11T03:40:22.926Z,99673.53
2022-09-11T03:41:02.822Z,99670.47
2022-09-11T03:41:42.893Z,99675.53
2022-09-11T03:42:22.859Z,99677.94
2022-09-11T03:43:02.915Z,99665.00
2022-09-11T03:43:43.892Z,99680.63
2022-09-11T03:44:23.901Z,99674.34
2022-09-11T03:45:03.864Z,99682.31
2022-09-11T03:45:45.044Z,99676.53
2022-09-11T03:46:24.831Z,99684.38
2022-09-11T03:47:06.034Z,99679.94
2022-09-11T03:47:47.837Z,99678.94
2022-09-11T03:48:29.114Z,99675.53
2022-09-11T03:49:08.815Z,99678.78
2022-09-11T03:49:48.881Z,99674.22
2022-09-11T03:50:28.832Z,99674.56
2022-09-11T03:51:08.936Z,99652.16
2022-09-11T03:51:48.854Z,99677.59
2022-09-11T03:52:30.271Z,99675.06
2022-09-11T03:53:11.879Z,99677.94
2022-09-11T03:53:51.902Z,99671.00
2022-09-11T03:54:31.814Z,99666.91
2022-09-11T03:55:13.899Z,99671.13
2022-09-11T03:55:56.884Z,99680.13
2022-09-11T03:56:37.983Z,99678.94
2022-09-11T03:57:17.825Z,99681.81
2022-09-11T03:57:59.058Z,99683.03
2022-09-11T03:58:39.837Z,99680.38
2022-09-11T03:59:20.304Z,99684.09
2022-09-11T04:00:02.788Z,99681.75
2022-09-11T04:00:44.044Z,99681.25
2022-09-11T04:01:25.857Z,99671.25
2022-09-11T04:02:06.947Z,99685.19
2022-09-11T04:02:48.842Z,99684.81
2022-09-11T04:03:30.220Z,99679.78
2022-09-11T04:04:11.797Z,99695.75
2022-09-11T04:04:51.858Z,99687.94
2022-09-11T04:05:31.796Z,99690.13
2022-09-11T04:06:13.822Z,99687.41
2022-09-11T04:06:53.873Z,99688.31
2022-09-11T04:07:34.559Z,99686.97
2022-09-11T04:08:18.867Z,99681.38
2022-09-11T04:08:58.867Z,99693.63
2022-09-11T04:09:39.828Z,99690.19
2022-09-11T04:10:20.157Z,99691.75
2022-09-11T04:11:04.822Z,99692.78
2022-09-11T04:11:44.933Z,99688.19
2022-09-11T04:12:25.871Z,99695.16
2022-09-11T04:13:05.881Z,99691.41
2022-09-11T04:13:48.802Z,99692.13
2022-09-11T04:14:28.859Z,99698.56
2022-09-11T04:15:08.821Z,99690.09
2022-09-11T04:15:48.860Z,99697.06
2022-09-11T04:16:28.819Z,99692.16
2022-09-11T04:17:09.462Z,99694.00
2022-09-11T04:17:49.853Z,99689.25
2022-09-11T04:18:30.160Z,99677.94
2022-09-11T04:19:10.786Z,99694.69
2022-09-11T04:19:50.869Z,99692.16
2022-09-11T04:20:30.793Z,99702.00
2022-09-11T04:21:16.849Z,99690.44
2022-09-11T04:21:56.772Z,99687.88
2022-09-11T04:22:39.363Z,99691.16
2022-09-11T04:23:20.839Z,99693.38
2022-09-11T04:24:02.842Z,99687.94
2022-09-11T04:24:42.820Z,99692.50
2022-09-11T04:25:22.932Z,99686.75
2022-09-11T04:26:02.795Z,99686.91
2022-09-11T04:26:42.837Z,99687.75
2022-09-11T04:27:24.773Z,99691.63
2022-09-11T04:28:05.910Z,99685.34
2022-09-11T04:28:46.962Z,99686.91
2022-09-11T04:29:26.860Z,99679.44
2022-09-11T04:30:06.809Z,99685.72
2022-09-11T04:30:47.901Z,99680.09
2022-09-11T04:31:28.897Z,99692.84
2022-09-11T04:32:11.725Z,99693.31
2022-09-11T04:32:52.968Z,99687.72
2022-09-11T04:33:32.937Z,99679.56
2022-09-11T04:34:13.851Z,99675.69
2022-09-11T04:34:54.155Z,99695.22
2022-09-11T04:35:34.960Z,99692.66
2022-09-11T04:36:17.971Z,99694.00
2022-09-11T04:36:58.860Z,99693.84
2022-09-11T04:37:38.866Z,99695.22
2022-09-11T04:38:19.846Z,99695.19
2022-09-11T04:39:04.840Z,99687.38
2022-09-11T04:39:44.840Z,99698.41
2022-09-11T04:40:24.865Z,99699.91
2022-09-11T04:41:08.788Z,99674.81
2022-09-11T04:41:49.128Z,99678.91
2022-09-11T04:42:29.766Z,99690.44
2022-09-11T04:43:11.382Z,99689.41
2022-09-11T04:43:51.793Z,99697.06
2022-09-11T04:44:32.563Z,99693.16
2022-09-11T04:45:13.928Z,99704.75
2022-09-11T04:45:54.140Z,99690.94
2022-09-11T04:46:35.859Z,99677.69
2022-09-11T04:47:16.781Z,99687.38
2022-09-11T04:47:52.969Z,99692.13
2022-09-11T04:48:33.751Z,99687.06
2022-09-11T04:49:08.171Z,99669.88
2022-09-11T04:49:42.525Z,99684.50
2022-09-11T04:50:23.794Z,99697.22
2022-09-11T04:51:09.881Z,99694.84
2022-09-11T04:51:44.196Z,99699.59
2022-09-11T04:52:24.749Z,99688.38
2022-09-11T04:52:58.816Z,99692.59
2022-09-11T04:53:33.312Z,99695.16
2022-09-11T04:54:13.749Z,99690.56
2022-09-11T04:54:48.364Z,99691.75
2022-09-11T04:55:22.976Z,99688.72
2022-09-11T04:56:09.802Z,99695.16
2022-09-11T04:56:43.872Z,99681.44
2022-09-11T04:57:17.476Z,99692.47
2022-09-11T04:57:59.830Z,99687.38
2022-09-11T04:58:33.816Z,99696.16
2022-09-11T04:59:22.274Z,99680.59
2022-09-11T05:00:02.742Z,99679.38
2022-09-11T05:00:36.940Z,99673.78
2022-09-11T05:01:22.812Z,99692.44
2022-09-11T05:02:03.852Z,99678.19
2022-09-11T05:02:43.765Z,99694.47
2022-09-11T05:03:24.511Z,99691.28
2022-09-11T05:04:06.753Z,99683.97
2022-09-11T05:04:46.809Z,99690.97
2022-09-11T05:05:26.748Z,99672.44
2022-09-11T05:06:16.346Z,99682.09
2022-09-11T05:06:56.770Z,99692.16
2022-09-11T05:07:36.812Z,99699.97
2022-09-11T05:08:17.724Z,99689.94
2022-09-11T05:08:59.113Z,99701.34
2022-09-11T05:09:39.753Z,99694.50
2022-09-11T05:10:20.232Z,99675.81
2022-09-11T05:11:01.748Z,99695.69
2022-09-11T05:11:42.831Z,99695.53
2022-09-11T05:12:23.827Z,99688.91
2022-09-11T05:13:03.809Z,99692.66
2022-09-11T05:13:43.763Z,99703.38
2022-09-11T05:14:23.808Z,99692.31
2022-09-11T05:15:03.775Z,99681.28
2022-09-11T05:15:44.829Z,99696.91
2022-09-11T05:16:24.786Z,99695.91
2022-09-11T05:17:05.868Z,99696.59
2022-09-11T05:17:45.849Z,99693.19
2022-09-11T05:18:25.902Z,99688.09
2022-09-11T05:19:06.740Z,99694.56
2022-09-11T05:19:49.158Z,99700.19
2022-09-11T05:20:30.734Z,99693.75
2022-09-11T05:21:19.882Z,99699.34
2022-09-11T05:21:59.734Z,99698.31
2022-09-11T05:22:39.884Z,99695.44
2022-09-11T05:23:19.776Z,99698.03
2022-09-11T05:24:04.387Z,99697.28
2022-09-11T05:24:45.794Z,99697.81
2022-09-11T05:25:25.970Z,99697.81
2022-09-11T05:26:07.721Z,99703.78
2022-09-11T05:26:47.784Z,99699.03
2022-09-11T05:27:27.794Z,99694.59
2022-09-11T05:28:07.795Z,99694.44
2022-09-11T05:28:47.817Z,99698.03
2022-09-11T05:29:32.702Z,99700.41
2022-09-11T05:30:13.720Z,99682.72
2022-09-11T05:30:54.800Z,99697.66
2022-09-11T05:31:35.814Z,99691.88
2022-09-11T05:32:15.977Z,99671.84
2022-09-11T05:33:02.721Z,99664.06
2022-09-11T05:33:36.782Z,99696.97
2022-09-11T05:34:16.728Z,99697.31
2022-09-11T05:34:56.844Z,99691.88
2022-09-11T05:35:37.767Z,99695.94
2022-09-11T05:36:19.867Z,99704.78
2022-09-11T05:37:00.726Z,99701.91
2022-09-11T05:37:42.797Z,99698.66
2022-09-11T05:38:23.742Z,99691.53
2022-09-11T05:39:04.848Z,99692.03
2022-09-11T05:39:44.790Z,99704.78
2022-09-11T05:40:24.772Z,99698.34
2022-09-11T05:41:05.706Z,99692.41
2022-09-11T05:41:45.804Z,99697.84
2022-09-11T05:42:26.725Z,99703.44
2022-09-11T05:43:07.016Z,99710.41
2022-09-11T05:43:47.765Z,99706.16
2022-09-11T05:44:30.901Z,99708.19
2022-09-11T05:45:11.791Z,99701.25
2022-09-11T05:45:59.842Z,99705.13
2022-09-11T05:46:40.742Z,99704.44
2022-09-11T05:47:20.773Z,99699.88
2022-09-11T05:48:00.758Z,99708.53
2022-09-11T05:48:41.841Z,99708.88
2022-09-11T05:49:22.721Z,99709.53
2022-09-11T05:50:03.249Z,99698.88
2022-09-11T05:50:44.753Z,99700.03
2022-09-11T05:51:26.778Z,99707.84
2022-09-11T05:52:07.771Z,99698.03
2022-09-11T05:52:47.848Z,99709.91
2022-09-11T05:53:28.696Z,99691.19
2022-09-11T05:54:08.780Z,99691.03
2022-09-11T05:54:48.747Z,99696.63
2022-09-11T05:55:28.802Z,99704.97
2022-09-11T05:56:24.780Z,99710.56
2022-09-11T05:57:07.760Z,99702.72
2022-09-11T05:57:48.705Z,99701.69
2022-09-11T05:58:28.760Z,99711.19
2022-09-11T05:59:08.717Z,99702.72
2022-09-11T05:59:48.800Z,99712.91
2022-09-11T06:00:28.680Z,99713.91
2022-09-11T06:01:18.326Z,99713.09
2022-09-11T06:01:59.765Z,99703.44
2022-09-11T06:02:39.818Z,99701.38
2022-09-11T06:03:25.714Z,99711.03
2022-09-11T06:04:05.791Z,99706.25
2022-09-11T06:04:45.736Z,99698.28
2022-09-11T06:05:25.816Z,99715.25
2022-09-11T06:06:08.719Z,99718.31
2022-09-11T06:06:48.885Z,99713.25
2022-09-11T06:07:29.757Z,99707.63
2022-09-11T06:08:09.784Z,99702.19
2022-09-11T06:08:50.752Z,99713.25
2022-09-11T06:09:30.782Z,99715.78
2022-09-11T06:10:11.713Z,99709.50
2022-09-11T06:10:52.782Z,99711.19
2022-09-11T06:11:33.719Z,99720.69
2022-09-11T06:12:13.765Z,99718.34
2022-09-11T06:12:53.712Z,99710.81
2022-09-11T06:13:41.891Z,99717.00
2022-09-11T06:14:22.720Z,99711.56
2022-09-11T06:15:02.759Z,99720.53
2022-09-11T06:15:46.961Z,99706.09
2022-09-11T06:16:31.495Z,99717.66
2022-09-11T06:17:12.725Z,99695.53
2022-09-11T06:17:53.531Z,99712.69
2022-09-11T06:18:34.728Z,99715.06
2022-09-11T06:19:14.762Z,99721.38
2022-09-11T06:19:55.688Z,99721.38
2022-09-11T06:20:35.769Z,99718.97
2022-09-11T06:21:20.868Z,99714.88
2022-09-11T06:22:00.850Z,99699.59
2022-09-11T06:22:42.729Z,99731.22
2022-09-11T06:23:22.786Z,99713.56
2022-09-11T06:24:03.728Z,99723.25
2022-09-11T06:24:43.808Z,99726.66
2022-09-11T06:25:24.690Z,99728.88
2022-09-11T06:26:14.803Z,99726.50
2022-09-11T06:26:55.675Z,99733.78
2022-09-11T06:27:35.802Z,99716.63
2022-09-11T06:28:15.685Z,99728.53
2022-09-11T06:28:55.864Z,99719.72
2022-09-11T06:29:39.124Z,99713.06
2022-09-11T06:30:19.794Z,99718.34
2022-09-11T06:31:00.688Z,99731.78
2022-09-11T06:31:41.442Z,99723.41
2022-09-11T06:32:21.673Z,99725.13
2022-09-11T06:32:57.588Z,99721.22
2022-09-11T06:33:49.698Z,99728.03
2022-09-11T06:34:23.522Z,99724.47
2022-09-11T06:35:05.700Z,99732.94
2022-09-11T06:35:39.738Z,99704.06
2022-09-11T06:36:17.727Z,99725.50
2022-09-11T06:36:58.714Z,99730.94
2022-09-11T06:37:33.053Z,99725.13
2022-09-11T06:38:07.403Z,99704.44
2022-09-11T06:38:48.695Z,99724.78
2022-09-11T06:39:26.521Z,99725.63
2022-09-11T06:40:00.479Z,99727.16
2022-09-11T06:40:44.713Z,99719.34
2022-09-11T06:41:22.183Z,99726.81
2022-09-11T06:41:56.398Z,99729.22
2022-09-11T06:42:37.693Z,99723.78
2022-09-11T06:43:12.784Z,99724.41
2022-09-11T06:43:47.386Z,99708.13
2022-09-11T06:44:28.664Z,99721.16
2022-09-11T06:45:02.953Z,99721.69
2022-09-11T06:45:36.488Z,99712.81
2022-09-11T06:46:21.677Z,99725.44
2022-09-11T06:46:57.448Z,99720.97
2022-09-11T06:47:31.434Z,99715.22
2022-09-11T06:48:12.653Z,99719.47
2022-09-11T06:48:47.918Z,99725.75
2022-09-11T06:49:21.383Z,99723.41
2022-09-11T06:50:03.753Z,99723.41
2022-09-11T06:50:40.878Z,99733.59
2022-09-11T06:51:17.528Z,99728.53
2022-09-11T06:51:58.674Z,99717.47
2022-09-11T06:52:32.745Z,99724.78
2022-09-11T06:53:07.431Z,99720.19
2022-09-11T06:53:48.657Z,99729.19
2022-09-11T06:54:22.711Z,99717.97
2022-09-11T06:54:57.308Z,99728.66
2022-09-11T06:55:37.645Z,99726.50
2022-09-11T06:56:15.662Z,99726.84
2022-09-11T06:56:49.367Z,99725.81
2022-09-11T06:57:30.671Z,99720.38
2022-09-11T06:58:04.729Z,99722.94
2022-09-11T06:58:39.897Z,99722.06
2022-09-11T06:59:20.687Z,99712.91
2022-09-11T06:59:54.754Z,99728.53
2022-09-11T07:00:28.986Z,99711.53
2022-09-11T07:01:10.711Z,99725.44
2022-09-11T07:01:44.941Z,99732.44
2022-09-11T07:02:19.863Z,99726.16
2022-09-11T07:03:00.673Z,99711.19
2022-09-11T07:03:34.681Z,99718.69
2022-09-11T07:04:08.548Z,99719.34
2022-09-11T07:04:48.643Z,99715.59
2022-09-11T07:05:22.718Z,99709.50
2022-09-11T07:05:56.531Z,99718.31
2022-09-11T07:06:37.741Z,99718.69
2022-09-11T07:07:17.708Z,99714.75
2022-09-11T07:07:59.646Z,99726.16
2022-09-11T07:08:40.676Z,99720.72
2022-09-11T07:09:17.888Z,99710.53
2022-09-11T07:09:51.330Z,99719.19
2022-09-11T07:10:32.662Z,99719.34
2022-09-11T07:11:14.892Z,99717.78
2022-09-11T07:11:48.335Z,99720.00
2022-09-11T07:12:30.636Z,99727.81
2022-09-11T07:13:11.692Z,99721.72
2022-09-11T07:13:45.603Z,99724.59
2022-09-11T07:14:33.675Z,99724.78
2022-09-11T07:15:08.456Z,99724.78
2022-09-11T07:15:55.679Z,99718.63
2022-09-11T07:16:29.344Z,99726.47
2022-09-11T07:17:16.658Z,99729.84
2022-09-11T07:17:50.425Z,99738.72
2022-09-11T07:18:30.658Z,99727.31
2022-09-11T07:19:06.143Z,99737.41
2022-09-11T07:19:40.414Z,99730.56
2022-09-11T07:20:21.670Z,99734.63
2022-09-11T07:20:55.938Z,99738.72
2022-09-11T07:21:29.679Z,99726.28
2022-09-11T07:22:10.636Z,99738.00
2022-09-11T07:22:46.710Z,99737.16
2022-09-11T07:23:20.413Z,99737.16
2022-09-11T07:24:04.655Z,99726.47
2022-09-11T07:24:38.692Z,99698.63
2022-09-11T07:25:12.730Z,99738.34
2022-09-11T07:25:52.665Z,99729.47
2022-09-11T07:26:26.793Z,99741.38
2022-09-11T07:27:00.849Z,99735.94
2022-09-11T07:27:41.757Z,99729.31
2022-09-11T07:28:16.778Z,99737.31
2022-09-11T07:28:51.638Z,99741.34
2022-09-11T07:29:32.699Z,99749.88
2022-09-11T07:30:06.788Z,99733.59
2022-09-11T07:30:40.911Z,99732.88
2022-09-11T07:31:25.838Z,99728.81
2022-09-11T07:32:03.098Z,99726.03
2022-09-11T07:32:37.785Z,99729.16
2022-09-11T07:33:17.758Z,99731.69
2022-09-11T07:33:55.107Z,99742.06
2022-09-11T07:34:30.376Z,99738.84
2022-09-11T07:35:12.841Z,99751.94
2022-09-11T07:35:46.741Z,99749.50
2022-09-11T07:36:25.464Z,99744.06
2022-09-11T07:37:38.886Z,99733.59
2022-09-11T07:38:20.886Z,99707.09
2022-09-11T07:38:58.302Z,99717.94
2022-09-11T07:39:40.691Z,99745.94
2022-09-11T07:40:23.773Z,99739.31
2022-09-11T07:40:58.062Z,99737.25
2022-09-11T07:41:44.862Z,99739.28
2022-09-11T07:42:18.898Z,99743.72
2022-09-11T07:43:05.616Z,99746.44
2022-09-11T07:43:45.641Z,99737.25
2022-09-11T07:44:32.594Z,99747.03
2022-09-11T07:45:07.109Z,99740.28
2022-09-11T07:45:47.834Z,99746.41
2022-09-11T07:46:12.077Z,99744.00
2022-09-11T07:46:46.509Z,99742.69
2022-09-11T07:47:27.736Z,99744.72
2022-09-11T07:48:02.163Z,99747.75
2022-09-11T07:48:39.134Z,99739.97
2022-09-11T07:50:08.715Z,99749.97
2022-09-11T07:50:42.664Z,99753.66
2022-09-11T07:51:28.003Z,99744.69
2022-09-11T07:52:03.349Z,99745.03
2022-09-11T07:52:55.044Z,99743.00
2022-09-11T07:53:29.935Z,99756.25
2022-09-11T07:54:20.662Z,99743.88
2022-09-11T07:54:56.186Z,99743.72
2022-09-11T07:55:43.946Z,99756.63
2022-09-11T07:56:37.765Z,99748.84
2022-09-11T07:57:31.727Z,99751.25
2022-09-11T07:58:26.741Z,99743.69
2022-09-11T07:59:21.774Z,99751.38
2022-09-11T08:00:17.329Z,99753.25
2022-09-11T08:00:56.018Z,99716.19
2022-09-11T08:01:37.911Z,99745.78
2022-09-11T08:03:40.726Z,99744.00
2022-09-11T08:04:18.830Z,99734.66
2022-09-11T08:05:07.612Z,99742.13
2022-09-11T08:05:41.682Z,99744.91
2022-09-11T08:06:30.695Z,99746.78
2022-09-11T08:07:11.886Z,99751.84
2022-09-11T08:08:06.922Z,99743.97
2022-09-11T08:09:00.613Z,99742.09
2022-09-11T08:10:16.328Z,99753.84
2022-09-11T08:11:17.925Z,99750.75
2022-09-11T08:12:11.664Z,99751.78
2022-09-11T08:13:08.994Z,99748.03
2022-09-11T08:14:08.683Z,99751.97
2022-09-11T08:15:02.667Z,99747.56
2022-09-11T08:16:00.668Z,99750.81
2022-09-11T08:16:55.626Z,99739.59
2022-09-11T08:17:36.990Z,99748.25
2022-09-11T08:18:17.646Z,99753.84
2022-09-11T08:18:58.685Z,99754.03
2022-09-11T08:19:39.091Z,99751.19
2022-09-11T08:20:19.615Z,99758.66
2022-09-11T08:20:59.647Z,99754.56
2022-09-11T08:21:40.693Z,99756.78
2022-09-11T08:22:20.851Z,99757.59
2022-09-11T08:23:01.605Z,99763.03
2022-09-11T08:23:49.627Z,99758.31
2022-09-11T08:24:30.586Z,99759.16
2022-09-11T08:25:11.818Z,99761.75
2022-09-11T08:25:52.577Z,99730.16
2022-09-11T08:26:35.685Z,99762.91
2022-09-11T08:27:16.651Z,99764.59
2022-09-11T08:27:56.651Z,99744.91
2022-09-11T08:28:36.607Z,99759.03
2022-09-11T08:29:18.241Z,99748.59
2022-09-11T08:30:00.585Z,99761.38
2022-09-11T08:30:40.672Z,99761.16
2022-09-11T08:31:21.632Z,99760.66
2022-09-11T08:32:02.583Z,99755.94
2022-09-11T08:32:42.590Z,99762.91
2022-09-11T08:33:22.778Z,99770.06
2022-09-11T08:34:03.594Z,99765.78